sensor_id;sensor_type;location;lat;lon;timestamp;P1;durP1;ratioP1;P2;durP2;ratioP2
8652;SDS011;4364;52.426;9.424;2024-01-30T00:00:46;19.20;;;11.50;;
8652;SDS011;4364;52.426;9.424;2024-01-30T00:03:13;19.50;;;12.30;;
8652;SDS011;4364;52.426;9.424;2024-01-30T00:05:39;19.13;;;11.43;;
8652;SDS011;4364;52.426;9.424;2024-01-30T00:08:06;17.47;;;11.60;;
8652;SDS011;4364;52.426;9.424;2024-01-30T00:10:33;18.03;;;12.07;;
8652;SDS011;4364;52.426;9.424;2024-01-30T00:12:59;17.67;;;12.63;;
8652;SDS011;4364;52.426;9.424;2024-01-30T00:15:26;20.10;;;12.50;;
8652;SDS011;4364;52.426;9.424;2024-01-30T00:17:52;16.03;;;11.53;;
8652;SDS011;4364;52.426;9.424;2024-01-30T00:20:20;18.43;;;12.63;;
8652;SDS011;4364;52.426;9.424;2024-01-30T00:22:47;16.77;;;12.07;;
8652;SDS011;4364;52.426;9.424;2024-01-30T00:25:13;25.43;;;12.93;;
8652;SDS011;4364;52.426;9.424;2024-01-30T00:27:40;19.50;;;12.80;;
8652;SDS011;4364;52.426;9.424;2024-01-30T00:30:07;19.27;;;11.93;;
8652;SDS011;4364;52.426;9.424;2024-01-30T00:32:34;18.53;;;11.73;;
8652;SDS011;4364;52.426;9.424;2024-01-30T00:35:01;18.23;;;12.00;;
8652;SDS011;4364;52.426;9.424;2024-01-30T00:37:28;15.90;;;11.20;;
8652;SDS011;4364;52.426;9.424;2024-01-30T00:39:54;21.23;;;12.77;;
8652;SDS011;4364;52.426;9.424;2024-01-30T00:42:21;15.20;;;11.03;;
8652;SDS011;4364;52.426;9.424;2024-01-30T00:44:49;16.57;;;11.50;;
8652;SDS011;4364;52.426;9.424;2024-01-30T00:47:16;16.77;;;11.40;;
8652;SDS011;4364;52.426;9.424;2024-01-30T00:49:42;19.03;;;12.03;;
8652;SDS011;4364;52.426;9.424;2024-01-30T00:52:09;21.17;;;11.77;;
8652;SDS011;4364;52.426;9.424;2024-01-30T00:54:36;20.07;;;11.90;;
8652;SDS011;4364;52.426;9.424;2024-01-30T00:57:03;18.63;;;12.90;;
8652;SDS011;4364;52.426;9.424;2024-01-30T00:59:30;20.73;;;12.67;;
8652;SDS011;4364;52.426;9.424;2024-01-30T01:01:56;17.27;;;12.33;;
8652;SDS011;4364;52.426;9.424;2024-01-30T01:04:23;18.13;;;11.10;;
8652;SDS011;4364;52.426;9.424;2024-01-30T01:06:50;19.27;;;12.10;;
8652;SDS011;4364;52.426;9.424;2024-01-30T01:09:16;21.43;;;12.73;;
8652;SDS011;4364;52.426;9.424;2024-01-30T01:11:43;16.47;;;11.73;;
8652;SDS011;4364;52.426;9.424;2024-01-30T01:14:09;19.77;;;11.57;;
8652;SDS011;4364;52.426;9.424;2024-01-30T01:16:36;17.33;;;11.67;;
8652;SDS011;4364;52.426;9.424;2024-01-30T01:19:03;15.23;;;11.83;;
8652;SDS011;4364;52.426;9.424;2024-01-30T01:21:31;20.03;;;12.70;;
8652;SDS011;4364;52.426;9.424;2024-01-30T01:23:57;16.53;;;12.07;;
8652;SDS011;4364;52.426;9.424;2024-01-30T01:26:24;16.63;;;12.47;;
8652;SDS011;4364;52.426;9.424;2024-01-30T01:28:50;18.53;;;11.53;;
8652;SDS011;4364;52.426;9.424;2024-01-30T01:31:17;15.77;;;11.37;;
8652;SDS011;4364;52.426;9.424;2024-01-30T01:33:44;18.47;;;12.27;;
8652;SDS011;4364;52.426;9.424;2024-01-30T01:36:11;16.47;;;11.87;;
8652;SDS011;4364;52.426;9.424;2024-01-30T01:38:37;17.93;;;11.30;;
8652;SDS011;4364;52.426;9.424;2024-01-30T01:41:04;17.47;;;12.23;;
8652;SDS011;4364;52.426;9.424;2024-01-30T01:43:30;20.53;;;13.00;;
8652;SDS011;4364;52.426;9.424;2024-01-30T01:45:56;17.17;;;12.60;;
8652;SDS011;4364;52.426;9.424;2024-01-30T01:48:23;16.83;;;12.03;;
8652;SDS011;4364;52.426;9.424;2024-01-30T01:50:51;18.37;;;12.17;;
8652;SDS011;4364;52.426;9.424;2024-01-30T01:53:18;17.77;;;12.40;;
8652;SDS011;4364;52.426;9.424;2024-01-30T01:55:45;16.97;;;12.43;;
8652;SDS011;4364;52.426;9.424;2024-01-30T01:58:12;19.70;;;13.13;;
8652;SDS011;4364;52.426;9.424;2024-01-30T02:00:39;20.67;;;13.70;;
8652;SDS011;4364;52.426;9.424;2024-01-30T02:03:09;20.67;;;13.30;;
8652;SDS011;4364;52.426;9.424;2024-01-30T02:05:37;18.30;;;13.80;;
8652;SDS011;4364;52.426;9.424;2024-01-30T02:08:05;18.23;;;12.50;;
8652;SDS011;4364;52.426;9.424;2024-01-30T02:10:33;19.17;;;12.87;;
8652;SDS011;4364;52.426;9.424;2024-01-30T02:12:59;20.53;;;12.53;;
8652;SDS011;4364;52.426;9.424;2024-01-30T02:15:26;19.87;;;13.23;;
8652;SDS011;4364;52.426;9.424;2024-01-30T02:17:52;19.77;;;12.70;;
8652;SDS011;4364;52.426;9.424;2024-01-30T02:20:19;18.87;;;12.73;;
8652;SDS011;4364;52.426;9.424;2024-01-30T02:22:46;16.60;;;11.97;;
8652;SDS011;4364;52.426;9.424;2024-01-30T02:25:13;19.83;;;12.00;;
8652;SDS011;4364;52.426;9.424;2024-01-30T02:27:39;20.03;;;12.67;;
8652;SDS011;4364;52.426;9.424;2024-01-30T02:30:06;19.23;;;12.93;;
8652;SDS011;4364;52.426;9.424;2024-01-30T02:32:33;18.10;;;12.67;;
8652;SDS011;4364;52.426;9.424;2024-01-30T02:34:59;21.53;;;14.07;;
8652;SDS011;4364;52.426;9.424;2024-01-30T02:37:26;22.33;;;14.03;;
8652;SDS011;4364;52.426;9.424;2024-01-30T02:39:52;20.77;;;13.40;;
8652;SDS011;4364;52.426;9.424;2024-01-30T02:42:19;19.80;;;12.93;;
8652;SDS011;4364;52.426;9.424;2024-01-30T02:44:45;24.30;;;13.57;;
8652;SDS011;4364;52.426;9.424;2024-01-30T02:47:12;23.00;;;13.47;;
8652;SDS011;4364;52.426;9.424;2024-01-30T02:49:38;20.40;;;13.47;;
8652;SDS011;4364;52.426;9.424;2024-01-30T02:52:05;18.97;;;12.67;;
8652;SDS011;4364;52.426;9.424;2024-01-30T02:54:31;20.93;;;13.90;;
8652;SDS011;4364;52.426;9.424;2024-01-30T02:56:58;22.27;;;13.90;;
8652;SDS011;4364;52.426;9.424;2024-01-30T02:59:24;22.03;;;13.83;;
8652;SDS011;4364;52.426;9.424;2024-01-30T03:01:51;23.27;;;13.40;;
8652;SDS011;4364;52.426;9.424;2024-01-30T03:04:17;19.23;;;13.47;;
8652;SDS011;4364;52.426;9.424;2024-01-30T03:06:45;18.43;;;13.33;;
8652;SDS011;4364;52.426;9.424;2024-01-30T03:09:13;23.30;;;14.60;;
8652;SDS011;4364;52.426;9.424;2024-01-30T03:11:39;21.87;;;13.43;;
8652;SDS011;4364;52.426;9.424;2024-01-30T03:14:06;24.80;;;14.37;;
8652;SDS011;4364;52.426;9.424;2024-01-30T03:16:34;20.90;;;14.67;;
8652;SDS011;4364;52.426;9.424;2024-01-30T03:19:01;24.83;;;15.30;;
8652;SDS011;4364;52.426;9.424;2024-01-30T03:21:28;23.53;;;14.27;;
8652;SDS011;4364;52.426;9.424;2024-01-30T03:23:55;20.20;;;13.10;;
8652;SDS011;4364;52.426;9.424;2024-01-30T03:26:21;24.83;;;14.00;;
8652;SDS011;4364;52.426;9.424;2024-01-30T03:28:47;21.90;;;14.67;;
8652;SDS011;4364;52.426;9.424;2024-01-30T03:31:14;23.43;;;14.43;;
8652;SDS011;4364;52.426;9.424;2024-01-30T03:33:42;22.90;;;14.33;;
8652;SDS011;4364;52.426;9.424;2024-01-30T03:36:09;19.60;;;14.20;;
8652;SDS011;4364;52.426;9.424;2024-01-30T03:38:35;23.20;;;14.07;;
8652;SDS011;4364;52.426;9.424;2024-01-30T03:41:02;20.40;;;13.50;;
8652;SDS011;4364;52.426;9.424;2024-01-30T03:43:29;20.80;;;14.33;;
8652;SDS011;4364;52.426;9.424;2024-01-30T03:45:55;19.70;;;13.73;;
8652;SDS011;4364;52.426;9.424;2024-01-30T03:48:22;22.60;;;14.30;;
8652;SDS011;4364;52.426;9.424;2024-01-30T03:50:48;22.10;;;14.47;;
8652;SDS011;4364;52.426;9.424;2024-01-30T03:53:15;22.97;;;14.77;;
8652;SDS011;4364;52.426;9.424;2024-01-30T03:55:41;25.23;;;14.83;;
8652;SDS011;4364;52.426;9.424;2024-01-30T03:58:08;19.43;;;13.53;;
8652;SDS011;4364;52.426;9.424;2024-01-30T04:00:34;24.87;;;14.57;;
8652;SDS011;4364;52.426;9.424;2024-01-30T04:03:01;25.30;;;15.23;;
8652;SDS011;4364;52.426;9.424;2024-01-30T04:05:28;23.63;;;15.00;;
8652;SDS011;4364;52.426;9.424;2024-01-30T04:07:54;23.50;;;14.53;;
8652;SDS011;4364;52.426;9.424;2024-01-30T04:10:21;27.20;;;15.37;;
8652;SDS011;4364;52.426;9.424;2024-01-30T04:12:47;23.80;;;15.37;;
8652;SDS011;4364;52.426;9.424;2024-01-30T04:15:14;21.47;;;14.80;;
8652;SDS011;4364;52.426;9.424;2024-01-30T04:17:40;25.23;;;14.73;;
8652;SDS011;4364;52.426;9.424;2024-01-30T04:20:07;21.30;;;14.73;;
8652;SDS011;4364;52.426;9.424;2024-01-30T04:22:34;21.03;;;14.50;;
8652;SDS011;4364;52.426;9.424;2024-01-30T04:25:00;22.23;;;14.20;;
8652;SDS011;4364;52.426;9.424;2024-01-30T04:27:27;19.83;;;14.77;;
8652;SDS011;4364;52.426;9.424;2024-01-30T04:29:54;21.67;;;14.40;;
8652;SDS011;4364;52.426;9.424;2024-01-30T04:32:20;24.43;;;15.10;;
8652;SDS011;4364;52.426;9.424;2024-01-30T04:34:47;19.80;;;14.40;;
8652;SDS011;4364;52.426;9.424;2024-01-30T04:37:13;22.73;;;13.93;;
8652;SDS011;4364;52.426;9.424;2024-01-30T04:39:40;24.53;;;15.60;;
8652;SDS011;4364;52.426;9.424;2024-01-30T04:42:07;20.23;;;14.20;;
8652;SDS011;4364;52.426;9.424;2024-01-30T04:44:35;24.20;;;15.53;;
8652;SDS011;4364;52.426;9.424;2024-01-30T04:47:02;23.03;;;14.97;;
8652;SDS011;4364;52.426;9.424;2024-01-30T04:49:31;22.33;;;15.43;;
8652;SDS011;4364;52.426;9.424;2024-01-30T04:51:58;25.13;;;15.90;;
8652;SDS011;4364;52.426;9.424;2024-01-30T04:54:25;20.07;;;14.27;;
8652;SDS011;4364;52.426;9.424;2024-01-30T04:56:51;21.27;;;14.70;;
8652;SDS011;4364;52.426;9.424;2024-01-30T04:59:18;23.13;;;14.80;;
8652;SDS011;4364;52.426;9.424;2024-01-30T05:01:44;22.57;;;15.40;;
8652;SDS011;4364;52.426;9.424;2024-01-30T05:04:11;19.87;;;14.43;;
8652;SDS011;4364;52.426;9.424;2024-01-30T05:06:42;25.07;;;15.93;;
8652;SDS011;4364;52.426;9.424;2024-01-30T05:09:09;24.03;;;15.40;;
8652;SDS011;4364;52.426;9.424;2024-01-30T05:11:41;25.00;;;16.33;;
8652;SDS011;4364;52.426;9.424;2024-01-30T05:14:08;25.13;;;15.83;;
8652;SDS011;4364;52.426;9.424;2024-01-30T05:16:35;25.30;;;15.57;;
8652;SDS011;4364;52.426;9.424;2024-01-30T05:19:01;23.87;;;15.73;;
8652;SDS011;4364;52.426;9.424;2024-01-30T05:21:29;26.03;;;16.40;;
8652;SDS011;4364;52.426;9.424;2024-01-30T05:23:55;21.57;;;14.90;;
8652;SDS011;4364;52.426;9.424;2024-01-30T05:26:22;23.53;;;15.77;;
8652;SDS011;4364;52.426;9.424;2024-01-30T05:28:49;25.53;;;15.53;;
8652;SDS011;4364;52.426;9.424;2024-01-30T05:31:15;27.97;;;16.67;;
8652;SDS011;4364;52.426;9.424;2024-01-30T05:33:42;22.67;;;15.10;;
8652;SDS011;4364;52.426;9.424;2024-01-30T05:36:11;23.57;;;15.90;;
8652;SDS011;4364;52.426;9.424;2024-01-30T05:38:38;30.43;;;16.43;;
8652;SDS011;4364;52.426;9.424;2024-01-30T05:41:05;22.33;;;15.90;;
8652;SDS011;4364;52.426;9.424;2024-01-30T05:43:32;20.33;;;14.73;;
8652;SDS011;4364;52.426;9.424;2024-01-30T05:45:58;22.00;;;14.47;;
8652;SDS011;4364;52.426;9.424;2024-01-30T05:48:25;22.33;;;14.83;;
8652;SDS011;4364;52.426;9.424;2024-01-30T05:50:51;21.93;;;14.63;;
8652;SDS011;4364;52.426;9.424;2024-01-30T05:53:18;19.87;;;14.73;;
8652;SDS011;4364;52.426;9.424;2024-01-30T05:55:45;25.83;;;15.63;;
8652;SDS011;4364;52.426;9.424;2024-01-30T05:58:11;27.43;;;16.63;;
8652;SDS011;4364;52.426;9.424;2024-01-30T06:00:37;23.30;;;15.83;;
8652;SDS011;4364;52.426;9.424;2024-01-30T06:03:04;19.97;;;14.37;;
8652;SDS011;4364;52.426;9.424;2024-01-30T06:05:31;21.97;;;14.77;;
8652;SDS011;4364;52.426;9.424;2024-01-30T06:07:57;23.17;;;15.73;;
8652;SDS011;4364;52.426;9.424;2024-01-30T06:10:24;26.77;;;15.73;;
8652;SDS011;4364;52.426;9.424;2024-01-30T06:12:51;22.67;;;14.97;;
8652;SDS011;4364;52.426;9.424;2024-01-30T06:15:17;23.47;;;15.23;;
8652;SDS011;4364;52.426;9.424;2024-01-30T06:17:44;22.23;;;15.53;;
8652;SDS011;4364;52.426;9.424;2024-01-30T06:20:10;22.73;;;16.30;;
8652;SDS011;4364;52.426;9.424;2024-01-30T06:22:37;22.03;;;14.90;;
8652;SDS011;4364;52.426;9.424;2024-01-30T06:25:03;23.03;;;15.27;;
8652;SDS011;4364;52.426;9.424;2024-01-30T06:27:30;23.60;;;16.30;;
8652;SDS011;4364;52.426;9.424;2024-01-30T06:29:57;27.47;;;15.77;;
8652;SDS011;4364;52.426;9.424;2024-01-30T06:32:23;23.17;;;15.30;;
8652;SDS011;4364;52.426;9.424;2024-01-30T06:34:50;26.63;;;16.53;;
8652;SDS011;4364;52.426;9.424;2024-01-30T06:37:16;24.07;;;15.57;;
8652;SDS011;4364;52.426;9.424;2024-01-30T06:39:43;21.57;;;14.60;;
8652;SDS011;4364;52.426;9.424;2024-01-30T06:42:10;23.00;;;15.27;;
8652;SDS011;4364;52.426;9.424;2024-01-30T06:44:38;23.00;;;15.80;;
8652;SDS011;4364;52.426;9.424;2024-01-30T06:47:04;20.93;;;14.33;;
8652;SDS011;4364;52.426;9.424;2024-01-30T06:49:31;25.13;;;15.60;;
8652;SDS011;4364;52.426;9.424;2024-01-30T06:51:58;21.73;;;14.97;;
8652;SDS011;4364;52.426;9.424;2024-01-30T06:54:24;22.33;;;14.73;;
8652;SDS011;4364;52.426;9.424;2024-01-30T06:56:50;22.10;;;14.77;;
8652;SDS011;4364;52.426;9.424;2024-01-30T06:59:17;22.93;;;14.57;;
8652;SDS011;4364;52.426;9.424;2024-01-30T07:01:44;20.37;;;14.47;;
8652;SDS011;4364;52.426;9.424;2024-01-30T07:04:10;19.23;;;14.20;;
8652;SDS011;4364;52.426;9.424;2024-01-30T07:06:37;20.27;;;14.40;;
8652;SDS011;4364;52.426;9.424;2024-01-30T07:09:04;22.17;;;14.60;;
8652;SDS011;4364;52.426;9.424;2024-01-30T07:11:31;23.40;;;15.87;;
8652;SDS011;4364;52.426;9.424;2024-01-30T07:13:58;21.90;;;15.10;;
8652;SDS011;4364;52.426;9.424;2024-01-30T07:16:24;23.33;;;16.03;;
8652;SDS011;4364;52.426;9.424;2024-01-30T07:18:51;25.00;;;15.87;;
8652;SDS011;4364;52.426;9.424;2024-01-30T07:21:18;21.83;;;15.07;;
8652;SDS011;4364;52.426;9.424;2024-01-30T07:23:45;20.83;;;14.87;;
8652;SDS011;4364;52.426;9.424;2024-01-30T07:26:11;22.37;;;14.43;;
8652;SDS011;4364;52.426;9.424;2024-01-30T07:28:38;23.73;;;14.63;;
8652;SDS011;4364;52.426;9.424;2024-01-30T07:31:04;22.60;;;15.07;;
8652;SDS011;4364;52.426;9.424;2024-01-30T07:33:32;22.40;;;15.50;;
8652;SDS011;4364;52.426;9.424;2024-01-30T07:35:59;26.47;;;17.13;;
8652;SDS011;4364;52.426;9.424;2024-01-30T07:38:26;27.53;;;17.03;;
8652;SDS011;4364;52.426;9.424;2024-01-30T07:40:52;24.73;;;16.10;;
8652;SDS011;4364;52.426;9.424;2024-01-30T07:43:19;25.27;;;16.33;;
8652;SDS011;4364;52.426;9.424;2024-01-30T07:45:46;23.60;;;16.17;;
8652;SDS011;4364;52.426;9.424;2024-01-30T07:48:13;23.93;;;16.10;;
8652;SDS011;4364;52.426;9.424;2024-01-30T07:50:40;22.27;;;16.20;;
8652;SDS011;4364;52.426;9.424;2024-01-30T07:53:06;22.80;;;15.10;;
8652;SDS011;4364;52.426;9.424;2024-01-30T07:55:33;22.73;;;15.90;;
8652;SDS011;4364;52.426;9.424;2024-01-30T07:58:00;22.87;;;15.20;;
8652;SDS011;4364;52.426;9.424;2024-01-30T08:00:27;21.30;;;15.70;;
8652;SDS011;4364;52.426;9.424;2024-01-30T08:02:55;20.27;;;14.50;;
8652;SDS011;4364;52.426;9.424;2024-01-30T08:05:22;24.83;;;16.30;;
8652;SDS011;4364;52.426;9.424;2024-01-30T08:07:49;26.60;;;17.13;;
8652;SDS011;4364;52.426;9.424;2024-01-30T08:10:17;24.50;;;16.10;;
8652;SDS011;4364;52.426;9.424;2024-01-30T08:12:46;26.40;;;17.87;;
8652;SDS011;4364;52.426;9.424;2024-01-30T08:15:13;24.93;;;16.20;;
8652;SDS011;4364;52.426;9.424;2024-01-30T08:17:40;23.30;;;16.57;;
8652;SDS011;4364;52.426;9.424;2024-01-30T08:20:07;24.93;;;16.33;;
8652;SDS011;4364;52.426;9.424;2024-01-30T08:22:38;25.67;;;16.40;;
8652;SDS011;4364;52.426;9.424;2024-01-30T08:25:07;25.20;;;16.70;;
8652;SDS011;4364;52.426;9.424;2024-01-30T08:27:34;25.63;;;17.30;;
8652;SDS011;4364;52.426;9.424;2024-01-30T08:30:02;24.63;;;16.67;;
8652;SDS011;4364;52.426;9.424;2024-01-30T08:32:29;24.80;;;17.20;;
8652;SDS011;4364;52.426;9.424;2024-01-30T08:34:55;23.87;;;16.53;;
8652;SDS011;4364;52.426;9.424;2024-01-30T08:37:22;26.57;;;17.20;;
8652;SDS011;4364;52.426;9.424;2024-01-30T08:39:49;27.33;;;16.17;;
8652;SDS011;4364;52.426;9.424;2024-01-30T08:42:15;24.50;;;16.10;;
8652;SDS011;4364;52.426;9.424;2024-01-30T08:44:44;23.30;;;16.37;;
8652;SDS011;4364;52.426;9.424;2024-01-30T08:47:11;24.77;;;16.20;;
8652;SDS011;4364;52.426;9.424;2024-01-30T08:49:37;23.63;;;15.80;;
8652;SDS011;4364;52.426;9.424;2024-01-30T08:52:04;26.67;;;17.30;;
8652;SDS011;4364;52.426;9.424;2024-01-30T08:54:30;21.30;;;15.47;;
8652;SDS011;4364;52.426;9.424;2024-01-30T08:57:02;21.93;;;14.87;;
8652;SDS011;4364;52.426;9.424;2024-01-30T08:59:30;26.17;;;15.13;;
8652;SDS011;4364;52.426;9.424;2024-01-30T09:01:56;24.40;;;15.37;;
8652;SDS011;4364;52.426;9.424;2024-01-30T09:04:37;20.73;;;15.43;;
8652;SDS011;4364;52.426;9.424;2024-01-30T09:07:05;23.90;;;15.93;;
8652;SDS011;4364;52.426;9.424;2024-01-30T09:09:35;24.40;;;16.67;;
8652;SDS011;4364;52.426;9.424;2024-01-30T09:12:03;26.77;;;16.17;;
8652;SDS011;4364;52.426;9.424;2024-01-30T09:14:33;23.97;;;14.90;;
8652;SDS011;4364;52.426;9.424;2024-01-30T09:16:59;25.50;;;15.73;;
8652;SDS011;4364;52.426;9.424;2024-01-30T09:19:26;21.63;;;15.40;;
8652;SDS011;4364;52.426;9.424;2024-01-30T09:21:53;22.90;;;15.97;;
8652;SDS011;4364;52.426;9.424;2024-01-30T09:24:19;22.67;;;14.37;;
8652;SDS011;4364;52.426;9.424;2024-01-30T09:26:46;24.23;;;15.57;;
8652;SDS011;4364;52.426;9.424;2024-01-30T09:29:12;22.00;;;15.57;;
8652;SDS011;4364;52.426;9.424;2024-01-30T09:31:39;20.63;;;14.87;;
8652;SDS011;4364;52.426;9.424;2024-01-30T09:34:05;19.90;;;14.57;;
8652;SDS011;4364;52.426;9.424;2024-01-30T09:36:32;25.33;;;15.40;;
8652;SDS011;4364;52.426;9.424;2024-01-30T09:38:59;23.07;;;15.07;;
8652;SDS011;4364;52.426;9.424;2024-01-30T09:41:26;22.33;;;15.33;;
8652;SDS011;4364;52.426;9.424;2024-01-30T09:43:54;21.40;;;15.43;;
8652;SDS011;4364;52.426;9.424;2024-01-30T09:46:23;20.23;;;15.03;;
8652;SDS011;4364;52.426;9.424;2024-01-30T09:48:55;21.97;;;15.27;;
8652;SDS011;4364;52.426;9.424;2024-01-30T09:51:24;22.17;;;16.00;;
8652;SDS011;4364;52.426;9.424;2024-01-30T09:53:52;21.17;;;15.43;;
8652;SDS011;4364;52.426;9.424;2024-01-30T09:56:20;22.67;;;15.17;;
8652;SDS011;4364;52.426;9.424;2024-01-30T09:58:47;22.10;;;15.60;;
8652;SDS011;4364;52.426;9.424;2024-01-30T10:01:14;24.27;;;16.13;;
8652;SDS011;4364;52.426;9.424;2024-01-30T10:03:45;22.63;;;15.83;;
8652;SDS011;4364;52.426;9.424;2024-01-30T10:06:12;22.43;;;14.20;;
8652;SDS011;4364;52.426;9.424;2024-01-30T10:08:38;21.13;;;15.77;;
8652;SDS011;4364;52.426;9.424;2024-01-30T10:11:05;21.10;;;15.53;;
8652;SDS011;4364;52.426;9.424;2024-01-30T10:13:32;23.23;;;15.63;;
8652;SDS011;4364;52.426;9.424;2024-01-30T10:16:00;20.40;;;15.37;;
8652;SDS011;4364;52.426;9.424;2024-01-30T10:18:28;19.67;;;14.50;;
8652;SDS011;4364;52.426;9.424;2024-01-30T10:20:54;17.43;;;13.83;;
8652;SDS011;4364;52.426;9.424;2024-01-30T10:23:21;18.23;;;12.67;;
8652;SDS011;4364;52.426;9.424;2024-01-30T10:25:47;17.73;;;12.63;;
8652;SDS011;4364;52.426;9.424;2024-01-30T10:28:14;21.00;;;12.83;;
8652;SDS011;4364;52.426;9.424;2024-01-30T10:30:40;17.03;;;12.27;;
8652;SDS011;4364;52.426;9.424;2024-01-30T10:33:07;18.50;;;12.70;;
8652;SDS011;4364;52.426;9.424;2024-01-30T10:35:34;17.00;;;12.23;;
8652;SDS011;4364;52.426;9.424;2024-01-30T10:38:00;16.87;;;12.10;;
8652;SDS011;4364;52.426;9.424;2024-01-30T10:40:28;19.33;;;11.77;;
8652;SDS011;4364;52.426;9.424;2024-01-30T10:42:55;16.10;;;12.00;;
8652;SDS011;4364;52.426;9.424;2024-01-30T10:45:22;19.80;;;12.40;;
8652;SDS011;4364;52.426;9.424;2024-01-30T10:47:54;16.47;;;11.57;;
8652;SDS011;4364;52.426;9.424;2024-01-30T10:50:24;15.27;;;11.07;;
8652;SDS011;4364;52.426;9.424;2024-01-30T10:52:51;17.57;;;11.90;;
8652;SDS011;4364;52.426;9.424;2024-01-30T10:55:18;17.47;;;11.73;;
8652;SDS011;4364;52.426;9.424;2024-01-30T10:57:46;15.07;;;11.30;;
8652;SDS011;4364;52.426;9.424;2024-01-30T11:00:13;17.13;;;11.63;;
8652;SDS011;4364;52.426;9.424;2024-01-30T11:02:44;17.27;;;11.97;;
8652;SDS011;4364;52.426;9.424;2024-01-30T11:05:12;16.70;;;11.53;;
8652;SDS011;4364;52.426;9.424;2024-01-30T11:07:39;14.87;;;11.43;;
8652;SDS011;4364;52.426;9.424;2024-01-30T11:10:09;15.57;;;11.07;;
8652;SDS011;4364;52.426;9.424;2024-01-30T11:12:41;15.40;;;11.53;;
8652;SDS011;4364;52.426;9.424;2024-01-30T11:15:10;14.67;;;11.10;;
8652;SDS011;4364;52.426;9.424;2024-01-30T11:20:18;14.70;;;10.67;;
8652;SDS011;4364;52.426;9.424;2024-01-30T11:22:53;16.23;;;10.93;;
8652;SDS011;4364;52.426;9.424;2024-01-30T11:25:22;17.23;;;12.07;;
8652;SDS011;4364;52.426;9.424;2024-01-30T11:27:51;13.70;;;11.03;;
8652;SDS011;4364;52.426;9.424;2024-01-30T11:35:26;15.97;;;11.03;;
8652;SDS011;4364;52.426;9.424;2024-01-30T11:37:53;15.43;;;10.90;;
8652;SDS011;4364;52.426;9.424;2024-01-30T11:40:21;15.23;;;10.50;;
8652;SDS011;4364;52.426;9.424;2024-01-30T11:42:47;13.47;;;9.93;;
8652;SDS011;4364;52.426;9.424;2024-01-30T11:45:15;16.60;;;10.63;;
8652;SDS011;4364;52.426;9.424;2024-01-30T11:47:42;14.93;;;10.50;;
8652;SDS011;4364;52.426;9.424;2024-01-30T11:50:10;14.87;;;9.93;;
8652;SDS011;4364;52.426;9.424;2024-01-30T11:52:37;13.60;;;9.83;;
8652;SDS011;4364;52.426;9.424;2024-01-30T11:55:04;13.80;;;9.90;;
8652;SDS011;4364;52.426;9.424;2024-01-30T11:57:31;13.83;;;9.60;;
8652;SDS011;4364;52.426;9.424;2024-01-30T11:59:57;14.57;;;9.73;;
8652;SDS011;4364;52.426;9.424;2024-01-30T12:02:23;16.33;;;10.07;;
8652;SDS011;4364;52.426;9.424;2024-01-30T12:04:50;14.00;;;9.67;;
8652;SDS011;4364;52.426;9.424;2024-01-30T12:07:16;11.90;;;9.90;;
8652;SDS011;4364;52.426;9.424;2024-01-30T12:09:51;13.93;;;10.00;;
8652;SDS011;4364;52.426;9.424;2024-01-30T12:12:19;13.93;;;9.20;;
8652;SDS011;4364;52.426;9.424;2024-01-30T12:14:48;11.73;;;8.63;;
8652;SDS011;4364;52.426;9.424;2024-01-30T12:17:28;14.60;;;9.70;;
8652;SDS011;4364;52.426;9.424;2024-01-30T12:20:02;18.87;;;9.83;;
8652;SDS011;4364;52.426;9.424;2024-01-30T12:22:35;13.30;;;9.53;;
8652;SDS011;4364;52.426;9.424;2024-01-30T12:25:13;13.67;;;10.70;;
8652;SDS011;4364;52.426;9.424;2024-01-30T12:27:44;12.67;;;9.60;;
8652;SDS011;4364;52.426;9.424;2024-01-30T12:30:12;14.07;;;9.70;;
8652;SDS011;4364;52.426;9.424;2024-01-30T12:32:40;13.87;;;9.83;;
8652;SDS011;4364;52.426;9.424;2024-01-30T12:35:11;14.13;;;10.43;;
8652;SDS011;4364;52.426;9.424;2024-01-30T12:37:39;14.60;;;9.77;;
8652;SDS011;4364;52.426;9.424;2024-01-30T12:40:07;16.60;;;10.30;;
8652;SDS011;4364;52.426;9.424;2024-01-30T12:42:34;15.27;;;10.20;;
8652;SDS011;4364;52.426;9.424;2024-01-30T12:45:02;13.13;;;9.30;;
8652;SDS011;4364;52.426;9.424;2024-01-30T12:47:30;12.40;;;9.57;;
8652;SDS011;4364;52.426;9.424;2024-01-30T12:49:56;11.90;;;8.97;;
8652;SDS011;4364;52.426;9.424;2024-01-30T12:52:23;14.50;;;8.80;;
8652;SDS011;4364;52.426;9.424;2024-01-30T12:54:50;11.63;;;8.10;;
8652;SDS011;4364;52.426;9.424;2024-01-30T12:57:17;10.30;;;7.73;;
8652;SDS011;4364;52.426;9.424;2024-01-30T12:59:45;10.93;;;8.03;;
8652;SDS011;4364;52.426;9.424;2024-01-30T13:02:12;11.00;;;7.53;;
8652;SDS011;4364;52.426;9.424;2024-01-30T13:04:39;12.40;;;8.00;;
8652;SDS011;4364;52.426;9.424;2024-01-30T13:07:06;13.77;;;8.20;;
8652;SDS011;4364;52.426;9.424;2024-01-30T13:09:33;12.73;;;7.83;;
8652;SDS011;4364;52.426;9.424;2024-01-30T13:11:59;14.23;;;8.50;;
8652;SDS011;4364;52.426;9.424;2024-01-30T13:14:27;13.47;;;8.50;;
8652;SDS011;4364;52.426;9.424;2024-01-30T13:16:54;13.37;;;7.77;;
8652;SDS011;4364;52.426;9.424;2024-01-30T13:19:20;10.63;;;7.37;;
8652;SDS011;4364;52.426;9.424;2024-01-30T13:21:47;9.57;;;8.10;;
8652;SDS011;4364;52.426;9.424;2024-01-30T13:24:14;12.67;;;8.10;;
8652;SDS011;4364;52.426;9.424;2024-01-30T13:26:42;11.30;;;7.87;;
8652;SDS011;4364;52.426;9.424;2024-01-30T13:29:09;12.57;;;7.83;;
8652;SDS011;4364;52.426;9.424;2024-01-30T13:31:35;12.30;;;8.40;;
8652;SDS011;4364;52.426;9.424;2024-01-30T13:34:03;11.80;;;8.17;;
8652;SDS011;4364;52.426;9.424;2024-01-30T13:36:33;10.50;;;7.90;;
8652;SDS011;4364;52.426;9.424;2024-01-30T13:39:00;9.67;;;7.93;;
8652;SDS011;4364;52.426;9.424;2024-01-30T13:41:31;14.37;;;9.10;;
8652;SDS011;4364;52.426;9.424;2024-01-30T13:43:58;11.83;;;7.80;;
8652;SDS011;4364;52.426;9.424;2024-01-30T13:46:25;11.87;;;7.70;;
8652;SDS011;4364;52.426;9.424;2024-01-30T13:48:52;11.93;;;8.37;;
8652;SDS011;4364;52.426;9.424;2024-01-30T13:51:19;10.43;;;8.30;;
8652;SDS011;4364;52.426;9.424;2024-01-30T13:53:45;14.10;;;8.67;;
8652;SDS011;4364;52.426;9.424;2024-01-30T13:56:11;13.07;;;8.60;;
8652;SDS011;4364;52.426;9.424;2024-01-30T13:58:38;11.87;;;8.47;;
8652;SDS011;4364;52.426;9.424;2024-01-30T14:01:05;13.73;;;8.10;;
8652;SDS011;4364;52.426;9.424;2024-01-30T14:03:31;11.23;;;8.40;;
8652;SDS011;4364;52.426;9.424;2024-01-30T14:05:58;12.13;;;8.10;;
8652;SDS011;4364;52.426;9.424;2024-01-30T14:08:27;13.00;;;8.53;;
8652;SDS011;4364;52.426;9.424;2024-01-30T14:10:54;14.23;;;8.60;;
8652;SDS011;4364;52.426;9.424;2024-01-30T14:13:22;13.77;;;8.17;;
8652;SDS011;4364;52.426;9.424;2024-01-30T14:15:48;13.53;;;9.40;;
8652;SDS011;4364;52.426;9.424;2024-01-30T14:18:19;14.20;;;9.10;;
8652;SDS011;4364;52.426;9.424;2024-01-30T14:20:45;11.93;;;9.30;;
8652;SDS011;4364;52.426;9.424;2024-01-30T14:23:12;18.20;;;8.93;;
8652;SDS011;4364;52.426;9.424;2024-01-30T14:25:39;15.30;;;9.93;;
8652;SDS011;4364;52.426;9.424;2024-01-30T14:28:05;15.03;;;9.53;;
8652;SDS011;4364;52.426;9.424;2024-01-30T14:30:33;14.07;;;9.73;;
8652;SDS011;4364;52.426;9.424;2024-01-30T14:33:00;18.63;;;11.43;;
8652;SDS011;4364;52.426;9.424;2024-01-30T14:35:26;17.47;;;10.70;;
8652;SDS011;4364;52.426;9.424;2024-01-30T14:37:53;23.40;;;12.83;;
8652;SDS011;4364;52.426;9.424;2024-01-30T14:40:20;24.40;;;13.87;;
8652;SDS011;4364;52.426;9.424;2024-01-30T14:42:47;26.20;;;14.57;;
8652;SDS011;4364;52.426;9.424;2024-01-30T14:45:14;21.83;;;12.63;;
8652;SDS011;4364;52.426;9.424;2024-01-30T14:47:41;19.10;;;11.67;;
8652;SDS011;4364;52.426;9.424;2024-01-30T14:50:07;20.33;;;12.13;;
8652;SDS011;4364;52.426;9.424;2024-01-30T14:52:36;22.70;;;12.70;;
8652;SDS011;4364;52.426;9.424;2024-01-30T14:55:04;19.40;;;10.77;;
8652;SDS011;4364;52.426;9.424;2024-01-30T14:57:30;18.83;;;11.10;;